Terminal Aerodrome Forecast
Issued by NWS Tallahassee, FL

Home | Current Version | Previous Version | Text Only | Print | Product List | Glossary On
Versions: 1 2 3 4 5 6 7 8 9 10 11 12 13 14 15 16
000
FTUS42 KTAE 041720
TAFTLH
TAF
KTLH 041720Z 0418/0518 24010KT P6SM VCTS SCT050CB
      TEMPO 0418/0422 VRB15G25KT TSRA BKN025CB
     FM050000 23003KT P6SM SCT250
     FM051500 24005KT P6SM VCTS SCT030CB=

USA.gov is the U.S. government's official web portal to all federal, state and local government web resources and services.